createdAt,value
2022-09-20T00:00:25.552Z,0.50
2022-09-20T00:01:29.910Z,0.40
2022-09-20T00:02:31.802Z,0.55
2022-09-20T00:03:34.902Z,0.50
2022-09-20T00:04:36.956Z,0.40
2022-09-20T00:05:41.991Z,0.40
2022-09-20T00:06:43.646Z,0.30
2022-09-20T00:07:46.045Z,0.55
2022-09-20T00:08:48.673Z,0.57
2022-09-20T00:09:50.334Z,0.65
2022-09-20T00:10:53.495Z,0.60
2022-09-20T00:11:55.171Z,0.77
2022-09-20T00:12:57.488Z,0.50
2022-09-20T00:14:01.485Z,0.75
2022-09-20T00:15:04.401Z,0.55
2022-09-20T00:16:09.056Z,0.60
2022-09-20T00:17:10.838Z,0.95
2022-09-20T00:18:13.252Z,0.60
2022-09-20T00:19:20.843Z,0.93
2022-09-20T00:20:22.855Z,0.80
2022-09-20T00:21:27.767Z,0.60
2022-09-20T00:22:29.425Z,0.90
2022-09-20T00:23:32.712Z,0.90
2022-09-20T00:24:36.545Z,1.00
2022-09-20T00:25:38.227Z,0.90
2022-09-20T00:26:40.663Z,1.00
2022-09-20T00:27:42.786Z,0.98
2022-09-20T00:28:46.948Z,1.00
2022-09-20T00:29:48.583Z,1.17
2022-09-20T00:30:52.002Z,1.20
2022-09-20T00:31:53.739Z,1.30
2022-09-20T00:32:55.591Z,1.20
2022-09-20T00:34:17.097Z,1.20
2022-09-20T00:35:18.747Z,1.10
2022-09-20T00:36:20.386Z,1.00
2022-09-20T00:37:22.123Z,1.10
2022-09-20T00:38:23.794Z,0.85
2022-09-20T00:39:25.463Z,0.88
2022-09-20T00:40:27.194Z,1.38
2022-09-20T00:41:30.965Z,1.10
2022-09-20T00:42:33.189Z,0.87
2022-09-20T00:43:38.651Z,1.00
2022-09-20T00:44:44.481Z,0.90
2022-09-20T00:45:49.019Z,0.90
2022-09-20T00:46:50.976Z,0.93
2022-09-20T00:47:55.410Z,0.47
2022-09-20T00:49:08.500Z,0.82
2022-09-20T00:50:34.941Z,0.60
2022-09-20T00:51:39.060Z,0.85
2022-09-20T00:52:45.270Z,0.60
2022-09-20T00:53:50.765Z,0.77
2022-09-20T00:54:53.522Z,0.70
2022-09-20T00:55:59.714Z,0.90
2022-09-20T00:57:01.535Z,0.70
2022-09-20T00:58:03.326Z,0.70
2022-09-20T00:59:27.833Z,1.00
2022-09-20T01:00:29.646Z,0.68
2022-09-20T01:01:32.330Z,0.68
2022-09-20T01:02:39.444Z,0.55
2022-09-20T01:03:42.772Z,0.50
2022-09-20T01:04:46.661Z,0.47
2022-09-20T01:05:50.337Z,0.60
2022-09-20T01:06:54.509Z,0.60
2022-09-20T01:07:56.887Z,0.50
2022-09-20T01:09:03.163Z,0.50
2022-09-20T01:10:05.114Z,0.50
2022-09-20T01:11:06.788Z,0.80
2022-09-20T01:12:14.993Z,0.43
2022-09-20T01:13:16.675Z,0.50
2022-09-20T01:14:19.089Z,0.52
2022-09-20T01:15:23.345Z,0.50
2022-09-20T01:16:27.020Z,0.40
2022-09-20T01:17:31.803Z,0.50
2022-09-20T01:18:35.603Z,0.60
2022-09-20T01:19:40.331Z,0.50
2022-09-20T01:20:44.565Z,0.40
2022-09-20T01:21:48.616Z,0.60
2022-09-20T01:23:00.556Z,0.63
2022-09-20T01:24:46.460Z,0.55
2022-09-20T01:26:21.891Z,0.50
2022-09-20T01:27:46.972Z,0.50
2022-09-20T01:28:53.452Z,0.73
2022-09-20T01:30:19.191Z,0.50
2022-09-20T01:31:28.327Z,0.80
2022-09-20T01:32:49.939Z,0.63
2022-09-20T01:34:13.227Z,1.00
2022-09-20T01:35:17.331Z,0.90
2022-09-20T01:36:24.894Z,1.13
2022-09-20T01:37:48.961Z,0.75
2022-09-20T01:38:56.578Z,0.90
2022-09-20T01:40:10.850Z,0.83
2022-09-20T01:41:23.748Z,1.00
2022-09-20T01:42:36.103Z,0.90
2022-09-20T01:44:11.090Z,0.85
2022-09-20T01:45:27.844Z,0.55
2022-09-20T01:46:32.201Z,0.82
2022-09-20T01:48:11.043Z,0.70
2022-09-20T01:49:47.036Z,0.60
2022-09-20T01:51:03.753Z,0.55
2022-09-20T01:52:26.817Z,0.73
2022-09-20T01:53:57.204Z,0.70
2022-09-20T01:55:01.386Z,0.70
2022-09-20T01:56:31.092Z,0.60
2022-09-20T01:57:37.946Z,0.60
2022-09-20T01:59:19.754Z,0.80
2022-09-20T02:00:26.363Z,0.65
2022-09-20T02:01:53.847Z,0.60
2022-09-20T02:03:20.379Z,0.50
2022-09-20T02:04:43.643Z,0.70
2022-09-20T02:05:54.357Z,0.60
2022-09-20T02:07:11.211Z,0.60
2022-09-20T02:08:40.403Z,0.50
2022-09-20T02:09:58.680Z,0.50
2022-09-20T02:11:21.438Z,0.60
2022-09-20T02:12:37.879Z,0.80
2022-09-20T02:13:39.805Z,0.40
2022-09-20T02:15:00.880Z,0.55
2022-09-20T02:16:46.454Z,0.60
2022-09-20T02:17:57.121Z,0.80
2022-09-20T02:19:20.606Z,0.60
2022-09-20T02:20:56.913Z,1.07
2022-09-20T02:22:14.860Z,0.68
2022-09-20T02:23:41.963Z,0.70
2022-09-20T02:25:04.529Z,0.68
2022-09-20T02:26:11.947Z,0.75
2022-09-20T02:27:32.116Z,0.70
2022-09-20T02:28:39.541Z,0.77
2022-09-20T02:30:13.156Z,0.80
2022-09-20T02:31:36.670Z,0.65
2022-09-20T02:32:38.286Z,0.63
2022-09-20T02:33:50.289Z,0.77
2022-09-20T02:35:05.506Z,0.50
2022-09-20T02:36:21.128Z,1.13
2022-09-20T02:37:49.830Z,0.77
2022-09-20T02:39:22.064Z,0.75
2022-09-20T02:40:45.008Z,0.98
2022-09-20T02:41:55.528Z,0.70
2022-09-20T02:43:03.342Z,0.80
2022-09-20T02:44:25.038Z,0.80
2022-09-20T02:45:37.302Z,0.90
2022-09-20T02:47:05.865Z,0.70
2022-09-20T02:48:07.671Z,0.90
2022-09-20T02:49:22.347Z,0.90
2022-09-20T02:51:01.772Z,1.00
2022-09-20T02:52:34.434Z,0.80
2022-09-20T02:53:54.340Z,1.00
2022-09-20T02:55:00.322Z,0.90
2022-09-20T02:56:09.173Z,0.98
2022-09-20T02:57:28.961Z,1.20
2022-09-20T02:58:41.717Z,0.82
2022-09-20T03:00:03.044Z,0.90
2022-09-20T03:01:29.337Z,0.73
2022-09-20T03:02:45.841Z,1.40
2022-09-20T03:04:09.249Z,1.00
2022-09-20T03:05:23.940Z,1.10
2022-09-20T03:07:02.668Z,0.80
2022-09-20T03:08:33.779Z,0.90
2022-09-20T03:09:50.550Z,0.90
2022-09-20T03:11:18.789Z,0.80
2022-09-20T03:12:53.517Z,0.70
2022-09-20T03:14:24.080Z,0.90
2022-09-20T03:15:40.908Z,0.75
2022-09-20T03:17:07.706Z,0.50
2022-09-20T03:18:31.826Z,0.52
2022-09-20T03:19:53.139Z,0.65
2022-09-20T03:21:24.799Z,0.80
2022-09-20T03:22:55.336Z,0.60
2022-09-20T03:24:18.902Z,0.63
2022-09-20T03:25:27.610Z,0.77
2022-09-20T03:26:41.017Z,0.80
2022-09-20T03:27:54.631Z,0.73
2022-09-20T03:29:25.741Z,0.73
2022-09-20T03:30:56.997Z,0.52
2022-09-20T03:32:28.841Z,0.60
2022-09-20T03:33:45.287Z,0.45
2022-09-20T03:35:02.750Z,0.57
2022-09-20T03:36:13.708Z,0.60
2022-09-20T03:37:31.565Z,0.40
2022-09-20T03:39:08.070Z,0.95
2022-09-20T03:40:23.437Z,0.80
2022-09-20T03:41:33.828Z,0.60
2022-09-20T03:42:43.848Z,0.68
2022-09-20T03:43:45.444Z,0.80
2022-09-20T03:45:05.713Z,0.80
2022-09-20T03:46:21.602Z,0.80
2022-09-20T03:47:45.364Z,0.90
2022-09-20T03:48:57.187Z,0.80
2022-09-20T03:50:07.352Z,1.00
2022-09-20T03:51:16.915Z,1.02
2022-09-20T03:52:22.042Z,0.93
2022-09-20T03:53:35.447Z,1.30
2022-09-20T03:54:58.952Z,1.02
2022-09-20T03:56:15.605Z,1.10
2022-09-20T03:57:44.978Z,1.88
2022-09-20T03:58:46.616Z,1.27
2022-09-20T04:00:03.838Z,1.60
2022-09-20T04:01:30.268Z,1.50
2022-09-20T04:02:40.762Z,1.60
2022-09-20T04:03:57.527Z,1.40
2022-09-20T04:05:03.251Z,1.90
2022-09-20T04:06:31.579Z,2.13
2022-09-20T04:07:55.772Z,1.60
2022-09-20T04:09:32.385Z,1.63
2022-09-20T04:10:40.803Z,2.10
2022-09-20T04:12:11.714Z,1.80
2022-09-20T04:13:35.078Z,2.10
2022-09-20T04:14:47.649Z,1.95
2022-09-20T04:16:10.909Z,1.90
2022-09-20T04:17:45.168Z,1.83
2022-09-20T04:18:50.747Z,2.10
2022-09-20T04:20:02.408Z,2.57
2022-09-20T04:21:24.960Z,2.20
2022-09-20T04:22:29.349Z,2.50
2022-09-20T04:23:43.261Z,2.95
2022-09-20T04:24:53.928Z,2.35
2022-09-20T04:25:55.874Z,2.28
2022-09-20T04:27:14.244Z,2.20
2022-09-20T04:28:19.952Z,2.15
2022-09-20T04:29:37.216Z,2.20
2022-09-20T04:30:44.139Z,2.30
2022-09-20T04:31:54.438Z,2.80
2022-09-20T04:33:23.259Z,2.17
2022-09-20T04:35:01.087Z,2.92
2022-09-20T04:36:31.158Z,1.90
2022-09-20T04:37:38.413Z,1.90
2022-09-20T04:38:40.731Z,2.20
2022-09-20T04:40:09.880Z,2.13
2022-09-20T04:41:31.984Z,2.42
2022-09-20T04:43:07.692Z,1.80
2022-09-20T04:44:36.729Z,2.10
2022-09-20T04:46:06.849Z,2.07
2022-09-20T04:47:20.361Z,1.70
2022-09-20T04:48:51.448Z,2.13
2022-09-20T04:49:58.980Z,1.65
2022-09-20T04:51:21.908Z,1.65
2022-09-20T04:53:05.475Z,1.85
2022-09-20T04:54:21.550Z,1.55
2022-09-20T04:55:35.400Z,1.55
2022-09-20T04:57:17.676Z,1.65
2022-09-20T04:58:38.441Z,1.25
2022-09-20T05:00:22.533Z,1.30
2022-09-20T05:01:55.654Z,1.40
2022-09-20T05:03:15.786Z,1.52
2022-09-20T05:04:58.154Z,1.50
2022-09-20T05:06:31.431Z,1.65
2022-09-20T05:08:01.029Z,1.60
2022-09-20T05:09:33.576Z,2.58
2022-09-20T05:10:47.612Z,2.33
2022-09-20T05:12:14.025Z,1.88
2022-09-20T05:13:53.037Z,2.30
2022-09-20T05:15:25.705Z,2.57
2022-09-20T05:16:44.482Z,2.15
2022-09-20T05:18:05.740Z,2.50
2022-09-20T05:19:43.081Z,2.40
2022-09-20T05:20:55.417Z,2.50
2022-09-20T05:22:08.485Z,2.40
2022-09-20T05:23:25.203Z,2.60
2022-09-20T05:24:38.840Z,2.70
2022-09-20T05:25:52.021Z,2.85
2022-09-20T05:27:19.658Z,2.55
2022-09-20T05:28:34.073Z,2.57
2022-09-20T05:30:07.192Z,3.22
2022-09-20T05:31:40.311Z,2.65
2022-09-20T05:32:57.136Z,2.88
2022-09-20T05:34:16.447Z,2.85
2022-09-20T05:35:28.571Z,2.58
2022-09-20T05:36:43.879Z,3.13
2022-09-20T05:37:54.593Z,3.40
2022-09-20T05:39:28.582Z,3.15
2022-09-20T05:40:50.438Z,3.22
2022-09-20T05:41:52.490Z,3.43
2022-09-20T05:43:11.407Z,3.03
2022-09-20T05:45:21.512Z,3.22
2022-09-20T05:46:53.035Z,3.00
2022-09-20T05:48:04.355Z,2.92
2022-09-20T05:49:10.964Z,3.05
2022-09-20T05:50:46.248Z,3.88
2022-09-20T05:52:00.219Z,3.75
2022-09-20T05:53:26.464Z,4.00
2022-09-20T05:55:05.155Z,3.63
2022-09-20T05:56:49.482Z,3.00
2022-09-20T05:58:22.389Z,3.25
2022-09-20T06:00:01.155Z,3.13
2022-09-20T06:01:19.040Z,2.85
2022-09-20T06:02:35.116Z,2.90
2022-09-20T06:03:45.586Z,2.80
2022-09-20T06:04:50.484Z,3.10
2022-09-20T06:06:17.369Z,2.70
2022-09-20T06:07:39.343Z,2.55
2022-09-20T06:09:07.359Z,2.95
2022-09-20T06:10:31.590Z,2.70
2022-09-20T06:11:57.574Z,2.78
2022-09-20T06:13:24.186Z,2.85
2022-09-20T06:15:00.085Z,2.75
2022-09-20T06:16:04.401Z,2.20
2022-09-20T06:17:24.792Z,2.53
2022-09-20T06:18:29.663Z,2.90
2022-09-20T06:19:40.608Z,2.47
2022-09-20T06:21:07.508Z,2.33
2022-09-20T06:22:16.095Z,2.35
2022-09-20T06:23:18.599Z,2.50
2022-09-20T06:24:31.315Z,2.40
2022-09-20T06:25:48.745Z,2.35
2022-09-20T06:26:54.067Z,2.40
2022-09-20T06:28:05.244Z,2.22
2022-09-20T06:29:12.083Z,2.65
2022-09-20T06:30:26.926Z,2.63
2022-09-20T06:31:28.975Z,2.42
2022-09-20T06:32:31.235Z,2.88
2022-09-20T06:33:33.234Z,2.80
2022-09-20T06:34:35.338Z,2.93
2022-09-20T06:35:42.824Z,2.58
2022-09-20T06:37:12.916Z,2.75
2022-09-20T06:38:57.944Z,2.42
2022-09-20T06:40:41.039Z,2.45
2022-09-20T06:41:44.289Z,2.55
2022-09-20T06:42:45.942Z,3.30
2022-09-20T06:43:48.589Z,2.78
2022-09-20T06:44:50.280Z,2.47
2022-09-20T06:45:52.037Z,3.20
2022-09-20T06:46:54.349Z,2.43
2022-09-20T06:47:55.982Z,2.78
2022-09-20T06:48:58.451Z,2.80
2022-09-20T06:50:00.121Z,3.05
2022-09-20T06:51:01.993Z,2.80
2022-09-20T06:52:07.494Z,3.22
2022-09-20T06:53:18.698Z,3.17
2022-09-20T06:54:21.791Z,3.22
2022-09-20T06:55:29.943Z,2.85
2022-09-20T06:56:36.882Z,2.65
2022-09-20T06:57:38.884Z,3.00
2022-09-20T06:58:40.543Z,3.13
2022-09-20T06:59:42.232Z,3.00
2022-09-20T07:00:43.977Z,2.88
2022-09-20T07:01:45.736Z,3.10
2022-09-20T07:02:48.852Z,3.28
2022-09-20T07:03:50.513Z,3.03
2022-09-20T07:04:58.034Z,2.97
2022-09-20T07:06:00.589Z,2.67
2022-09-20T07:07:06.204Z,2.88
2022-09-20T07:08:10.892Z,3.33
2022-09-20T07:09:12.646Z,2.90
2022-09-20T07:10:15.427Z,3.15
2022-09-20T07:11:17.821Z,3.40
2022-09-20T07:12:19.479Z,3.15
2022-09-20T07:13:21.439Z,3.25
2022-09-20T07:14:23.546Z,3.20
2022-09-20T07:15:26.107Z,2.90
2022-09-20T07:16:27.885Z,3.38
2022-09-20T07:17:29.553Z,3.30
2022-09-20T07:18:33.459Z,3.37
2022-09-20T07:19:36.716Z,3.05
2022-09-20T07:20:38.639Z,2.97
2022-09-20T07:21:40.456Z,3.33
2022-09-20T07:22:42.085Z,3.75
2022-09-20T07:23:45.999Z,3.13
2022-09-20T07:24:48.279Z,3.20
2022-09-20T07:25:50.874Z,3.67
2022-09-20T07:26:59.362Z,4.10
2022-09-20T07:28:01.126Z,3.33
2022-09-20T07:29:02.852Z,3.40
2022-09-20T07:30:04.984Z,3.20
2022-09-20T07:31:06.629Z,3.88
2022-09-20T07:32:08.537Z,3.42
2022-09-20T07:33:11.011Z,3.55
2022-09-20T07:34:12.893Z,3.20
2022-09-20T07:35:14.888Z,3.53
2022-09-20T07:36:17.262Z,3.67
2022-09-20T07:37:19.415Z,3.42
2022-09-20T07:38:22.921Z,3.65
2022-09-20T07:39:24.565Z,3.40
2022-09-20T07:40:27.348Z,3.80
2022-09-20T07:41:31.635Z,3.25
2022-09-20T07:42:33.306Z,3.60
2022-09-20T07:43:35.054Z,3.85
2022-09-20T07:44:36.731Z,3.65
2022-09-20T07:45:39.562Z,3.95
2022-09-20T07:46:41.690Z,3.92
2022-09-20T07:47:44.887Z,4.13
2022-09-20T07:48:46.677Z,3.70
2022-09-20T07:49:48.374Z,4.43
2022-09-20T07:50:54.663Z,4.30
2022-09-20T07:51:57.006Z,3.60
2022-09-20T07:52:58.848Z,4.22
2022-09-20T07:54:00.608Z,3.20
2022-09-20T07:55:02.297Z,3.40
2022-09-20T07:56:07.483Z,3.80
2022-09-20T07:57:09.251Z,3.80
2022-09-20T07:58:10.943Z,3.67
2022-09-20T07:59:13.852Z,3.35
2022-09-20T08:00:16.022Z,3.37
2022-09-20T08:01:17.786Z,4.00
2022-09-20T08:02:19.536Z,4.10
2022-09-20T08:03:22.534Z,3.88
2022-09-20T08:04:24.181Z,3.95
2022-09-20T08:05:26.272Z,3.13
2022-09-20T08:06:28.006Z,3.55
2022-09-20T08:07:29.683Z,2.95
2022-09-20T08:08:36.296Z,3.65
2022-09-20T08:09:37.962Z,3.55
2022-09-20T08:10:40.947Z,3.93
2022-09-20T08:11:43.596Z,3.90
2022-09-20T08:14:09.120Z,3.67
2022-09-20T08:15:12.147Z,4.18
2022-09-20T08:16:14.478Z,3.22
2022-09-20T08:17:16.381Z,3.42
2022-09-20T08:18:18.091Z,4.32
2022-09-20T08:19:22.732Z,3.28
2022-09-20T08:20:24.449Z,3.10
2022-09-20T08:21:28.143Z,3.47
2022-09-20T08:22:32.470Z,3.42
2022-09-20T08:23:38.707Z,3.55
2022-09-20T08:24:40.401Z,3.97
2022-09-20T08:25:42.106Z,3.75
2022-09-20T08:26:44.460Z,3.50
2022-09-20T08:27:53.478Z,3.35
2022-09-20T08:28:57.124Z,3.05
2022-09-20T08:29:59.070Z,3.15
2022-09-20T08:31:05.883Z,3.08
2022-09-20T08:32:07.624Z,3.10
2022-09-20T08:33:11.304Z,2.63
2022-09-20T08:34:15.051Z,2.65
2022-09-20T08:35:17.636Z,2.20
2022-09-20T08:36:22.121Z,2.10
2022-09-20T08:37:23.826Z,2.25
2022-09-20T08:39:57.999Z,2.13
2022-09-20T08:41:10.179Z,2.00
2022-09-20T08:42:22.159Z,1.55
2022-09-20T08:43:28.811Z,2.10
2022-09-20T08:44:45.414Z,2.40
2022-09-20T08:45:47.432Z,2.20
2022-09-20T08:46:52.533Z,2.13
2022-09-20T08:47:59.198Z,1.98
2022-09-20T08:49:03.297Z,2.15
2022-09-20T08:50:10.062Z,1.85
2022-09-20T08:51:22.583Z,1.75
2022-09-20T08:52:37.114Z,1.80
2022-09-20T08:53:49.124Z,1.40
2022-09-20T08:54:51.246Z,1.20
2022-09-20T08:55:52.932Z,1.27
2022-09-20T08:56:55.947Z,1.90
2022-09-20T08:57:59.200Z,1.38
2022-09-20T08:59:00.902Z,2.00
2022-09-20T09:00:05.070Z,1.73
2022-09-20T09:01:07.400Z,2.03
2022-09-20T09:02:16.736Z,2.30
2022-09-20T09:03:19.007Z,2.10
2022-09-20T09:04:32.200Z,2.38
2022-09-20T09:05:38.960Z,2.63
2022-09-20T09:06:42.014Z,2.05
2022-09-20T09:07:43.845Z,2.75
2022-09-20T09:08:47.519Z,2.78
2022-09-20T09:09:54.016Z,2.70
2022-09-20T09:11:08.487Z,2.78
2022-09-20T09:12:33.405Z,3.30
2022-09-20T09:14:01.899Z,3.17
2022-09-20T09:15:26.478Z,2.92
2022-09-20T09:16:35.241Z,2.85
2022-09-20T09:17:37.543Z,3.07
2022-09-20T09:18:45.437Z,3.00
2022-09-20T09:19:56.259Z,2.42
2022-09-20T09:20:59.199Z,1.83
2022-09-20T09:22:03.058Z,2.05
2022-09-20T09:23:08.992Z,2.45
2022-09-20T09:24:20.644Z,2.20
2022-09-20T09:25:34.460Z,2.30
2022-09-20T09:26:38.793Z,2.08
2022-09-20T09:27:53.460Z,2.00
2022-09-20T09:29:18.371Z,1.97
2022-09-20T09:30:42.323Z,2.25
2022-09-20T09:31:45.936Z,2.17
2022-09-20T09:32:47.793Z,2.20
2022-09-20T09:33:49.511Z,2.42
2022-09-20T09:34:51.459Z,2.10
2022-09-20T09:35:59.344Z,2.42
2022-09-20T09:37:01.134Z,2.60
2022-09-20T09:38:02.908Z,2.20
2022-09-20T09:39:24.585Z,1.95
2022-09-20T09:40:28.167Z,2.20
2022-09-20T09:41:35.709Z,2.20
2022-09-20T09:42:37.614Z,2.00
2022-09-20T09:43:40.545Z,2.20
2022-09-20T09:44:42.222Z,1.77
2022-09-20T09:45:43.951Z,1.98
2022-09-20T09:46:45.870Z,1.88
2022-09-20T09:47:47.541Z,1.80
2022-09-20T09:49:07.016Z,1.70
2022-09-20T09:50:23.365Z,1.77
2022-09-20T09:51:26.506Z,1.80
2022-09-20T09:52:33.219Z,1.75
2022-09-20T09:53:36.238Z,1.60
2022-09-20T09:54:40.513Z,1.60
2022-09-20T09:55:51.982Z,1.30
2022-09-20T09:57:11.849Z,1.65
2022-09-20T09:58:45.865Z,1.27
2022-09-20T09:59:50.601Z,1.77
2022-09-20T10:00:54.053Z,1.50
2022-09-20T10:02:16.150Z,1.60
2022-09-20T10:03:42.225Z,1.50
2022-09-20T10:05:15.042Z,1.40
2022-09-20T10:06:25.596Z,1.55
2022-09-20T10:07:39.014Z,1.27
2022-09-20T10:08:49.307Z,1.58
2022-09-20T10:10:21.417Z,1.50
2022-09-20T10:12:00.833Z,1.38
2022-09-20T10:13:17.623Z,1.40
2022-09-20T10:14:36.190Z,1.50
2022-09-20T10:16:08.523Z,1.33
2022-09-20T10:17:31.564Z,1.73
2022-09-20T10:18:54.916Z,1.48
2022-09-20T10:20:31.267Z,1.50
2022-09-20T10:22:02.026Z,2.05
2022-09-20T10:24:51.139Z,1.30
2022-09-20T10:26:41.057Z,1.42
2022-09-20T10:28:05.274Z,1.33
2022-09-20T10:29:23.156Z,1.80
2022-09-20T10:30:37.579Z,1.20
2022-09-20T10:32:15.412Z,1.20
2022-09-20T10:33:28.076Z,1.25
2022-09-20T10:35:08.653Z,1.20
2022-09-20T10:36:34.039Z,1.10
2022-09-20T10:37:49.067Z,1.00
2022-09-20T10:39:14.163Z,1.17
2022-09-20T10:40:25.011Z,1.30
2022-09-20T10:41:48.516Z,1.13
2022-09-20T10:43:15.645Z,0.98
2022-09-20T10:44:20.655Z,1.15
2022-09-20T10:46:08.296Z,1.13
2022-09-20T10:47:13.308Z,1.20
2022-09-20T10:48:30.798Z,1.10
2022-09-20T10:49:35.189Z,1.50
2022-09-20T10:50:53.477Z,1.25
2022-09-20T10:52:10.341Z,1.30
2022-09-20T10:53:23.080Z,1.30
2022-09-20T10:54:54.911Z,1.30
2022-09-20T10:56:08.357Z,1.40
2022-09-20T10:57:47.202Z,1.10
2022-09-20T10:58:54.397Z,1.10
2022-09-20T11:00:20.069Z,0.90
2022-09-20T11:01:34.559Z,0.45
2022-09-20T11:03:07.206Z,0.60
2022-09-20T11:04:26.906Z,0.60
2022-09-20T11:05:41.800Z,0.70
2022-09-20T11:07:07.879Z,0.73
2022-09-20T11:08:14.918Z,0.52
2022-09-20T11:09:22.840Z,0.68
2022-09-20T11:10:47.235Z,0.68
2022-09-20T11:12:06.669Z,0.70
2022-09-20T11:13:20.662Z,0.75
2022-09-20T11:14:32.599Z,0.82
2022-09-20T11:15:45.753Z,1.00
2022-09-20T11:17:29.222Z,0.63
2022-09-20T11:18:39.080Z,1.17
2022-09-20T11:20:07.251Z,0.98
2022-09-20T11:21:19.352Z,1.00
2022-09-20T11:22:32.868Z,1.15
2022-09-20T11:24:00.702Z,1.10
2022-09-20T11:25:18.122Z,0.80
2022-09-20T11:26:32.355Z,0.95
2022-09-20T11:27:46.157Z,0.80
2022-09-20T11:28:52.349Z,0.80
2022-09-20T11:30:01.983Z,0.80
2022-09-20T11:31:07.303Z,1.02
2022-09-20T11:32:15.668Z,0.80
2022-09-20T11:33:24.685Z,1.55
2022-09-20T11:34:31.143Z,0.98
2022-09-20T11:36:00.443Z,1.00
2022-09-20T11:37:03.437Z,0.93
2022-09-20T11:38:11.202Z,0.88
2022-09-20T11:39:22.376Z,1.23
2022-09-20T11:40:31.280Z,1.63
2022-09-20T11:41:33.800Z,1.00
2022-09-20T11:42:39.683Z,1.00
2022-09-20T11:43:44.415Z,1.20
2022-09-20T11:44:46.574Z,0.57
2022-09-20T11:45:54.079Z,0.70
2022-09-20T11:47:02.703Z,0.70
2022-09-20T11:48:25.247Z,0.50
2022-09-20T11:49:41.319Z,0.55
2022-09-20T11:51:09.702Z,0.40
2022-09-20T11:52:41.385Z,0.40
2022-09-20T11:54:01.592Z,0.50
2022-09-20T11:55:28.316Z,0.85
2022-09-20T11:56:33.929Z,0.60
2022-09-20T11:57:35.640Z,0.50
2022-09-20T11:58:48.224Z,0.50
2022-09-20T11:59:56.697Z,0.50
2022-09-20T12:00:59.801Z,0.50
2022-09-20T12:02:05.720Z,0.50
2022-09-20T12:03:33.071Z,0.70
2022-09-20T12:04:36.383Z,0.60
2022-09-20T12:05:41.581Z,0.57
2022-09-20T12:06:43.707Z,0.70
2022-09-20T12:07:46.093Z,1.17
2022-09-20T12:08:51.051Z,0.50
2022-09-20T12:09:58.171Z,0.52
2022-09-20T12:11:04.391Z,0.70
2022-09-20T12:12:46.998Z,0.90
2022-09-20T12:14:06.452Z,0.40
2022-09-20T12:15:28.128Z,0.20
2022-09-20T12:16:39.903Z,0.35
2022-09-20T12:17:47.510Z,0.30
2022-09-20T12:18:55.216Z,0.40
2022-09-20T12:19:56.888Z,0.55
2022-09-20T12:21:15.282Z,0.43
2022-09-20T12:22:27.411Z,0.60
2022-09-20T12:23:38.320Z,0.70
2022-09-20T12:24:44.536Z,0.50
2022-09-20T12:26:02.964Z,0.50
2022-09-20T12:27:23.322Z,1.08
2022-09-20T12:28:35.361Z,0.47
2022-09-20T12:29:47.534Z,0.73
2022-09-20T12:31:18.183Z,0.30
2022-09-20T12:32:44.150Z,0.65
2022-09-20T12:34:01.848Z,0.35
2022-09-20T12:35:35.271Z,0.57
2022-09-20T12:37:05.099Z,0.50
2022-09-20T12:38:21.621Z,0.70
2022-09-20T12:39:29.975Z,0.70
2022-09-20T12:40:32.440Z,0.65
2022-09-20T12:42:24.678Z,0.70
2022-09-20T12:43:29.169Z,0.40
2022-09-20T12:44:41.263Z,0.73
2022-09-20T12:45:54.095Z,0.90
2022-09-20T12:47:03.576Z,1.10
2022-09-20T12:48:05.319Z,0.90
2022-09-20T12:49:40.023Z,1.10
2022-09-20T12:51:00.377Z,0.97
2022-09-20T12:52:20.847Z,1.00
2022-09-20T12:53:22.693Z,0.90
2022-09-20T12:54:24.791Z,0.80
2022-09-20T12:55:49.731Z,0.70
2022-09-20T12:56:51.468Z,0.80
2022-09-20T12:58:12.010Z,1.00
2022-09-20T12:59:23.994Z,0.82
2022-09-20T13:00:38.953Z,0.90
2022-09-20T13:01:40.863Z,0.77
2022-09-20T13:02:44.817Z,0.50
2022-09-20T13:03:50.403Z,1.00
2022-09-20T13:04:55.478Z,0.60
2022-09-20T13:06:10.946Z,0.40
2022-09-20T13:07:41.292Z,0.30
2022-09-20T13:08:57.920Z,0.40
2022-09-20T13:10:06.489Z,0.60
2022-09-20T13:11:14.110Z,0.63
2022-09-20T13:12:16.204Z,0.60
2022-09-20T13:13:44.390Z,0.55
2022-09-20T13:14:47.171Z,0.57
2022-09-20T13:15:51.681Z,0.65
2022-09-20T13:17:20.710Z,0.50
2022-09-20T13:18:25.118Z,0.50
2022-09-20T13:19:41.868Z,0.50
2022-09-20T13:20:44.430Z,0.68
2022-09-20T13:21:55.277Z,0.50
2022-09-20T13:23:00.422Z,0.85
2022-09-20T13:24:03.494Z,0.60
2022-09-20T13:25:07.309Z,0.70
2022-09-20T13:26:13.013Z,0.60
2022-09-20T13:27:20.906Z,0.40
2022-09-20T13:28:32.342Z,0.70
2022-09-20T13:29:42.355Z,0.40
2022-09-20T13:30:44.100Z,0.50
2022-09-20T13:31:45.815Z,0.40
2022-09-20T13:32:48.958Z,0.50
2022-09-20T13:33:50.727Z,0.35
2022-09-20T13:35:18.276Z,0.30
2022-09-20T13:36:27.153Z,0.30
2022-09-20T13:37:28.906Z,0.40
2022-09-20T13:38:31.827Z,0.20
2022-09-20T13:39:36.828Z,0.28
2022-09-20T13:40:43.730Z,0.50
2022-09-20T13:41:45.501Z,0.25
2022-09-20T13:42:49.710Z,0.20
2022-09-20T13:43:52.054Z,0.35
2022-09-20T13:44:53.956Z,0.30
2022-09-20T13:46:06.590Z,0.30
2022-09-20T13:47:27.655Z,0.43
2022-09-20T13:48:30.407Z,0.20
2022-09-20T13:49:32.545Z,0.20
2022-09-20T13:50:35.807Z,0.20
2022-09-20T13:51:37.468Z,0.20
2022-09-20T13:52:46.220Z,0.30
2022-09-20T13:53:47.979Z,0.40
2022-09-20T13:54:49.771Z,0.30
2022-09-20T13:55:52.193Z,0.20
2022-09-20T13:57:00.836Z,0.22
2022-09-20T13:58:06.199Z,0.17
2022-09-20T13:59:18.465Z,0.10
2022-09-20T14:00:20.951Z,0.00
2022-09-20T14:01:28.587Z,0.10
2022-09-20T14:02:32.437Z,0.00
2022-09-20T14:03:35.957Z,0.03
2022-09-20T14:04:39.240Z,0.10
2022-09-20T14:05:56.411Z,0.10
2022-09-20T14:06:59.792Z,0.00
2022-09-20T14:08:01.775Z,0.08
2022-09-20T14:09:10.770Z,0.17
2022-09-20T14:10:31.701Z,0.10
2022-09-20T14:11:33.809Z,0.10
2022-09-20T14:12:35.778Z,0.00
2022-09-20T14:13:43.109Z,0.10
2022-09-20T14:14:46.124Z,0.10
2022-09-20T14:15:48.503Z,0.17
2022-09-20T14:16:51.692Z,0.10
2022-09-20T14:17:55.409Z,0.00
2022-09-20T14:18:59.015Z,0.10
2022-09-20T14:20:01.187Z,0.20
2022-09-20T14:21:03.602Z,0.07
2022-09-20T14:22:06.243Z,0.10
2022-09-20T14:23:24.563Z,0.80
2022-09-20T14:24:32.947Z,0.20
2022-09-20T14:25:34.799Z,0.20
2022-09-20T14:26:38.595Z,0.20
2022-09-20T14:27:40.797Z,0.10
2022-09-20T14:28:46.130Z,0.20
2022-09-20T14:29:54.743Z,0.47
2022-09-20T14:31:13.075Z,0.50
2022-09-20T14:32:17.766Z,0.73
2022-09-20T14:33:21.262Z,0.30
2022-09-20T14:34:23.487Z,0.40
2022-09-20T14:35:26.839Z,0.40
2022-09-20T14:36:30.244Z,0.55
2022-09-20T14:37:33.871Z,0.63
2022-09-20T14:38:36.773Z,0.20
2022-09-20T14:39:50.871Z,0.22
2022-09-20T14:40:52.879Z,0.20
2022-09-20T14:41:55.526Z,3.38
2022-09-20T14:43:00.431Z,1.70
2022-09-20T14:44:03.829Z,1.30
2022-09-20T14:45:06.957Z,1.60
2022-09-20T14:46:17.057Z,0.90
2022-09-20T14:47:35.300Z,0.50
2022-09-20T14:48:42.282Z,0.22
2022-09-20T14:49:44.973Z,0.40
2022-09-20T14:51:16.427Z,0.10
2022-09-20T14:52:27.523Z,0.20
2022-09-20T14:53:29.587Z,0.30
2022-09-20T14:54:33.590Z,0.67
2022-09-20T14:55:37.888Z,0.30
2022-09-20T14:56:42.575Z,0.35
2022-09-20T14:57:46.466Z,0.70
2022-09-20T14:59:06.854Z,0.30
2022-09-20T15:00:13.084Z,0.35
2022-09-20T15:01:24.316Z,0.70
2022-09-20T15:02:26.712Z,0.13
2022-09-20T15:03:34.105Z,0.20
2022-09-20T15:04:37.934Z,0.25
2022-09-20T15:05:39.673Z,0.20
2022-09-20T15:06:42.504Z,0.10
2022-09-20T15:07:45.177Z,0.17
2022-09-20T15:08:47.278Z,0.20
2022-09-20T15:09:49.459Z,0.10
2022-09-20T15:10:51.551Z,0.30
2022-09-20T15:12:01.872Z,0.20
2022-09-20T15:13:03.525Z,0.20
2022-09-20T15:14:05.179Z,0.20
2022-09-20T15:15:07.086Z,0.20
2022-09-20T15:16:10.594Z,0.10
2022-09-20T15:17:17.988Z,0.10
2022-09-20T15:18:26.407Z,0.10
2022-09-20T15:19:28.373Z,0.30
2022-09-20T15:20:30.055Z,0.50
2022-09-20T15:21:32.189Z,2.10
2022-09-20T15:22:33.857Z,0.80
2022-09-20T15:23:36.521Z,0.60
2022-09-20T15:24:38.736Z,0.43
2022-09-20T15:25:40.384Z,0.20
2022-09-20T15:26:42.050Z,0.20
2022-09-20T15:27:46.502Z,0.30
2022-09-20T15:28:48.744Z,0.30
2022-09-20T15:29:50.467Z,0.20
2022-09-20T15:30:52.274Z,0.10
2022-09-20T15:31:54.137Z,0.20
2022-09-20T15:33:00.850Z,0.10
2022-09-20T15:34:07.180Z,0.10
2022-09-20T15:35:09.148Z,0.30
2022-09-20T15:36:10.812Z,0.40
2022-09-20T15:37:12.464Z,0.20
2022-09-20T15:38:18.061Z,0.13
2022-09-20T15:39:22.071Z,0.28
2022-09-20T15:40:24.776Z,0.30
2022-09-20T15:41:31.194Z,0.35
2022-09-20T15:42:37.918Z,0.50
2022-09-20T15:43:43.152Z,1.10
2022-09-20T15:44:44.788Z,1.08
2022-09-20T15:45:50.182Z,0.95
2022-09-20T15:46:53.162Z,0.35
2022-09-20T15:47:55.406Z,0.20
2022-09-20T15:49:00.298Z,0.20
2022-09-20T15:50:06.508Z,0.20
2022-09-20T15:51:11.259Z,0.00
2022-09-20T15:52:13.518Z,0.20
2022-09-20T15:53:15.159Z,0.20
2022-09-20T15:54:17.201Z,0.20
2022-09-20T15:55:19.750Z,0.20
2022-09-20T15:56:35.942Z,0.20
2022-09-20T15:57:38.133Z,0.10
2022-09-20T15:58:43.433Z,0.30
2022-09-20T15:59:45.667Z,0.20